Time;durP1;ratioP1;P1;durP2;ratioP2;P2;SDS_P1;SDS_P2;PMS_P1;PMS_P2;Temp;Humidity;BMP_temperature;BMP_pressure;BME280_temperature;BME280_humidity;BME280_pressure;Samples;Min_cycle;Max_cycle;Signal;HPM_P1;HPM_P2
2023/09/23 00:00:52;;;;;;;2.05;1.10;;;;;;;14.81;45.76;100377.81;5014368;28;20053;-73
2023/09/23 00:03:23;;;;;;;2.17;1.00;;;;;;;14.82;45.89;100374.88;5016132;28;20084;-74
2023/09/23 00:05:51;;;;;;;1.42;0.90;;;;;;;14.79;46.11;100374.34;5011558;28;20056;-74
2023/09/23 00:08:19;;;;;;;2.08;1.00;;;;;;;14.80;46.03;100376.09;5016162;28;20076;-73
2023/09/23 00:10:50;;;;;;;1.23;0.95;;;;;;;14.79;45.97;100375.22;5015463;28;20053;-73
2023/09/23 00:13:20;;;;;;;2.10;1.00;;;;;;;14.80;46.24;100384.34;5012971;28;20215;-74
2023/09/23 00:15:49;;;;;;;1.88;1.00;;;;;;;14.79;46.80;100380.72;5013565;28;20057;-74
2023/09/23 00:18:18;;;;;;;1.75;1.02;;;;;;;14.81;46.81;100381.44;5013638;28;20053;-73
2023/09/23 00:20:48;;;;;;;1.27;0.85;;;;;;;14.83;46.40;100390.38;5015439;28;20140;-74
2023/09/23 00:23:16;;;;;;;1.77;0.95;;;;;;;14.82;46.79;100385.03;5014030;28;20067;-73
2023/09/23 00:25:46;;;;;;;1.73;0.90;;;;;;;14.83;46.87;100403.28;5014410;28;20053;-73
2023/09/23 00:28:14;;;;;;;2.38;1.15;;;;;;;14.83;46.82;100404.16;5015835;28;21303;-74
2023/09/23 00:30:45;;;;;;;1.50;0.90;;;;;;;14.84;46.47;100414.16;5013216;28;20548;-73
2023/09/23 00:33:16;;;;;;;1.60;0.93;;;;;;;14.83;46.72;100412.41;5015359;28;20501;-73
2023/09/23 00:35:47;;;;;;;1.25;0.88;;;;;;;14.82;46.68;100407.94;5013153;28;20139;-74
2023/09/23 00:38:17;;;;;;;2.03;0.80;;;;;;;14.82;46.32;100421.72;5014089;28;20140;-73
2023/09/23 00:40:45;;;;;;;0.80;0.70;;;;;;;14.83;46.91;100422.59;5015101;28;20468;-73
2023/09/23 00:43:15;;;;;;;1.65;0.93;;;;;;;14.81;46.20;100422.75;5015267;28;20920;-73
2023/09/23 00:45:47;;;;;;;1.33;0.90;;;;;;;14.84;46.38;100424.31;5012141;28;20127;-73
2023/09/23 00:48:20;;;;;;;1.45;0.88;;;;;;;14.81;46.78;100428.25;5015538;28;20139;-74
2023/09/23 00:50:53;;;;;;;1.55;0.60;;;;;;;14.81;46.53;100430.16;5014390;28;20154;-73
2023/09/23 00:53:22;;;;;;;0.85;0.50;;;;;;;14.78;46.05;100434.09;5014497;28;20111;-74
2023/09/23 00:55:54;;;;;;;1.27;0.80;;;;;;;14.79;46.05;100441.34;5013263;28;20049;-74
2023/09/23 00:58:26;;;;;;;1.58;0.75;;;;;;;14.80;46.36;100447.72;5010256;28;20081;-73
2023/09/23 01:00:55;;;;;;;2.38;1.10;;;;;;;14.77;46.06;100448.91;5015017;28;20519;-74
2023/09/23 01:03:24;;;;;;;2.78;0.95;;;;;;;14.76;46.16;100449.97;5015558;28;20140;-73
2023/09/23 01:06:15;;;;;;;1.20;0.90;;;;;;;14.75;47.07;100454.59;5014490;28;20140;-74
2023/09/23 01:08:46;;;;;;;1.60;1.08;;;;;;;14.71;46.39;100452.34;5015471;28;20054;-74
2023/09/23 01:11:17;;;;;;;2.72;1.17;;;;;;;14.71;45.73;100452.34;5016870;28;20045;-74
2023/09/23 01:13:50;;;;;;;1.65;0.90;;;;;;;14.70;45.94;100454.25;5015822;28;20135;-72
2023/09/23 01:16:21;;;;;;;1.63;1.20;;;;;;;14.68;46.11;100456.28;5014009;28;20139;-74
2023/09/23 01:18:50;;;;;;;2.28;1.20;;;;;;;14.69;46.04;100451.66;5016866;28;20791;-74
2023/09/23 01:21:21;;;;;;;2.40;1.08;;;;;;;14.69;46.20;100460.78;5016047;28;20108;-74
2023/09/23 01:23:51;;;;;;;1.77;1.02;;;;;;;14.68;45.73;100458.22;5017129;28;20084;-74
2023/09/23 01:26:20;;;;;;;1.55;1.00;;;;;;;14.65;46.26;100461.31;5014622;28;20545;-74
2023/09/23 01:28:49;;;;;;;2.28;1.20;;;;;;;14.65;45.74;100466.81;5015931;28;20070;-74
2023/09/23 01:31:20;;;;;;;2.17;1.10;;;;;;;14.63;45.92;100471.63;5014036;28;20446;-74
2023/09/23 01:33:48;;;;;;;2.13;1.20;;;;;;;14.62;46.30;100467.16;5017333;28;20130;-74
2023/09/23 01:36:16;;;;;;;1.88;1.10;;;;;;;14.61;46.40;100477.28;5013901;28;20053;-73
2023/09/23 01:38:44;;;;;;;3.25;1.25;;;;;;;14.60;45.92;100478.31;5015347;28;20479;-72
2023/09/23 01:41:15;;;;;;;2.13;1.10;;;;;;;14.62;46.25;100481.78;5014081;28;20072;-74
2023/09/23 01:43:43;;;;;;;2.85;1.10;;;;;;;14.60;46.34;100485.75;5015546;28;20516;-73
2023/09/23 01:46:12;;;;;;;2.30;1.30;;;;;;;14.59;46.20;100484.88;5013545;28;20061;-73
2023/09/23 01:48:40;;;;;;;2.67;1.45;;;;;;;14.59;45.77;100484.03;5016085;28;20136;-74
2023/09/23 01:51:10;;;;;;;2.97;1.67;;;;;;;14.58;45.92;100485.06;5015278;28;20050;-74
2023/09/23 01:53:38;;;;;;;2.25;1.38;;;;;;;14.57;45.96;100486.94;5015298;28;20076;-74
2023/09/23 01:56:06;;;;;;;2.25;1.45;;;;;;;14.57;46.09;100494.34;5014886;28;20176;-74
2023/09/23 01:58:35;;;;;;;2.70;1.40;;;;;;;14.57;45.92;100491.59;5014497;28;20065;-74
2023/09/23 02:01:04;;;;;;;2.25;1.40;;;;;;;14.54;45.81;100494.66;5014432;28;20449;-75
2023/09/23 02:03:33;;;;;;;2.67;1.40;;;;;;;14.53;46.14;100501.19;5016421;28;20139;-73
2023/09/23 02:06:01;;;;;;;2.85;1.50;;;;;;;14.51;46.30;100501.41;5013740;28;20049;-74
2023/09/23 02:08:29;;;;;;;2.78;1.50;;;;;;;14.51;46.29;100509.66;5013839;28;20052;-74
2023/09/23 02:10:57;;;;;;;3.58;1.60;;;;;;;14.50;46.25;100505.19;5016047;28;20096;-73
2023/09/23 02:13:28;;;;;;;3.85;1.67;;;;;;;14.49;46.46;100514.47;5016073;28;20057;-74
2023/09/23 02:15:58;;;;;;;3.17;1.50;;;;;;;14.50;46.14;100521.69;5013412;28;20057;-74
2023/09/23 02:18:26;;;;;;;4.18;1.80;;;;;;;14.48;45.96;100522.88;5015511;28;20141;-74
2023/09/23 02:20:54;;;;;;;3.70;1.70;;;;;;;14.47;46.45;100524.78;5015042;28;20493;-74
2023/09/23 02:23:22;;;;;;;4.45;1.70;;;;;;;14.45;46.36;100523.19;5014522;28;20053;-74
2023/09/23 02:25:51;;;;;;;3.30;1.88;;;;;;;14.45;46.71;100524.03;5013696;28;20053;-74
2023/09/23 02:28:19;;;;;;;3.40;1.90;;;;;;;14.43;46.63;100528.88;5015105;28;20576;-74
2023/09/23 02:30:47;;;;;;;3.33;1.90;;;;;;;14.42;46.38;100529.91;5039828;23;20049;-83
2023/09/23 02:33:17;;;;;;;3.17;1.58;;;;;;;14.42;46.69;100540.06;5062314;28;20052;-82
2023/09/23 02:35:45;;;;;;;3.10;1.83;;;;;;;14.39;46.20;100535.72;5047923;28;20124;-82
2023/09/23 02:38:12;;;;;;;2.80;1.40;;;;;;;14.37;46.87;100538.66;5047177;28;20492;-82
2023/09/23 02:40:42;;;;;;;2.72;1.40;;;;;;;14.38;46.39;100545.00;5066286;28;20472;-83
2023/09/23 02:43:11;;;;;;;2.15;1.48;;;;;;;14.36;46.51;100539.66;5044568;28;21265;-82
2023/09/23 02:45:39;;;;;;;3.08;1.50;;;;;;;14.34;46.86;100541.75;5043454;28;20586;-82
2023/09/23 02:48:08;;;;;;;3.17;1.58;;;;;;;14.34;46.60;100547.25;5043291;28;20154;-82
2023/09/23 02:50:38;;;;;;;2.50;1.30;;;;;;;14.32;46.22;100548.44;5057923;28;20502;-83
2023/09/23 02:53:06;;;;;;;2.75;1.40;;;;;;;14.30;46.61;100550.50;5043320;28;20048;-82
2023/09/23 02:55:34;;;;;;;2.70;1.42;;;;;;;14.31;46.67;100557.72;5041828;28;20053;-83
2023/09/23 02:58:02;;;;;;;2.15;1.20;;;;;;;14.30;46.48;100559.63;5062627;28;20075;-83
2023/09/23 03:00:33;;;;;;;3.28;1.60;;;;;;;14.28;46.71;100556.16;5041724;28;20068;-83
2023/09/23 03:03:08;;;;;;;3.70;1.75;;;;;;;14.28;46.58;100563.56;5043286;28;20048;-83
2023/09/23 03:05:44;;;;;;;3.20;1.33;;;;;;;14.27;47.26;100557.19;5041509;28;20078;-83
2023/09/23 03:08:14;;;;;;;2.85;1.42;;;;;;;14.25;47.12;100566.66;5042895;28;20098;-83
2023/09/23 03:10:44;;;;;;;3.13;1.35;;;;;;;14.23;46.72;100564.06;5042426;28;20045;-83
2023/09/23 03:13:12;;;;;;;3.03;1.38;;;;;;;14.22;46.53;100564.22;5059019;28;20060;-82
2023/09/23 03:15:48;;;;;;;2.53;1.15;;;;;;;14.22;47.28;100566.97;5040036;28;20047;-82
2023/09/23 03:18:27;;;;;;;2.95;1.60;;;;;;;14.21;46.61;100568.00;5044436;28;20051;-82
2023/09/23 03:21:03;;;;;;;4.50;1.35;;;;;;;14.20;47.15;100561.63;5042806;28;20045;-83
2023/09/23 03:23:31;;;;;;;2.80;1.10;;;;;;;14.18;47.24;100568.34;5044286;28;20152;-82
2023/09/23 03:26:00;;;;;;;1.83;1.10;;;;;;;14.18;47.14;100569.22;5046169;28;20125;-83
2023/09/23 03:28:28;;;;;;;3.05;1.20;;;;;;;14.17;46.79;100570.25;5062266;28;20055;-82
2023/09/23 03:31:00;;;;;;;1.95;1.20;;;;;;;14.16;47.09;100574.00;5046022;28;20037;-83
2023/09/23 03:33:28;;;;;;;2.30;1.10;;;;;;;14.13;46.72;100573.47;5048058;28;20045;-83
2023/09/23 03:35:57;;;;;;;3.40;1.00;;;;;;;14.16;47.31;100567.66;5049354;28;20291;-84
2023/09/23 03:38:28;;;;;;;2.05;1.08;;;;;;;14.11;46.88;100570.88;5053793;28;20055;-83
2023/09/23 03:40:59;;;;;;;3.95;1.40;;;;;;;14.14;46.78;100575.19;5063609;28;20052;-82
2023/09/23 03:43:29;;;;;;;2.00;0.98;;;;;;;14.12;47.07;100572.59;5064340;28;20044;-82
2023/09/23 03:45:57;;;;;;;2.50;1.05;;;;;;;14.12;47.08;100566.22;5051158;28;20359;-83
2023/09/23 03:48:25;;;;;;;2.63;1.02;;;;;;;14.11;47.15;100573.63;5046172;28;20051;-83
2023/09/23 03:50:54;;;;;;;1.50;0.90;;;;;;;14.11;47.17;100576.38;5044900;28;20076;-83
2023/09/23 03:53:24;;;;;;;2.20;1.10;;;;;;;14.12;46.59;100572.59;5046164;28;20678;-83
2023/09/23 03:55:54;;;;;;;3.35;1.33;;;;;;;14.10;46.89;100577.44;5047075;28;20687;-83
2023/09/23 03:58:24;;;;;;;2.33;0.82;;;;;;;14.08;46.68;100582.22;5045256;28;20056;-83
2023/09/23 04:00:54;;;;;;;2.15;1.00;;;;;;;14.09;46.90;100583.97;5044647;28;20140;-83
2023/09/23 04:03:22;;;;;;;3.67;1.40;;;;;;;14.07;46.64;100585.13;5045643;28;20136;-84
2023/09/23 04:05:55;;;;;;;3.45;1.10;;;;;;;14.08;46.97;100587.72;5044657;28;20146;-84
2023/09/23 04:08:24;;;;;;;2.15;0.82;;;;;;;14.06;46.70;100588.91;5045892;28;20480;-83
2023/09/23 04:10:52;;;;;;;3.47;1.13;;;;;;;14.05;47.24;100593.56;5047860;28;20056;-83
2023/09/23 04:13:20;;;;;;;3.70;1.00;;;;;;;14.04;46.99;100588.19;5048813;28;20074;-83
2023/09/23 04:15:48;;;;;;;2.42;0.93;;;;;;;14.02;46.94;100597.47;5046738;28;20587;-83
2023/09/23 04:18:18;;;;;;;2.08;1.00;;;;;;;14.02;46.87;100598.53;5049497;28;20863;-83
2023/09/23 04:20:48;;;;;;;1.83;1.00;;;;;;;13.99;47.08;100599.72;5047536;28;20569;-82
2023/09/23 04:23:16;;;;;;;2.60;1.00;;;;;;;13.97;46.97;100597.13;5049155;28;20044;-83
2023/09/23 04:25:45;;;;;;;2.13;1.10;;;;;;;13.99;47.17;100608.84;5049819;28;20353;-83
2023/09/23 04:28:13;;;;;;;1.95;0.80;;;;;;;13.96;46.85;100606.41;5050817;28;20057;-83
2023/09/23 04:30:41;;;;;;;1.70;0.93;;;;;;;13.95;46.69;100614.81;5050113;28;20173;-85
2023/09/23 04:33:12;;;;;;;3.20;0.70;;;;;;;13.90;47.01;100615.31;5055161;28;20079;-83
2023/09/23 04:35:40;;;;;;;1.95;1.00;;;;;;;13.91;46.72;100618.91;5062781;28;20056;-83
2023/09/23 04:38:08;;;;;;;2.35;0.77;;;;;;;13.90;46.73;100617.19;5066193;28;20101;-82
2023/09/23 04:40:37;;;;;;;2.53;0.90;;;;;;;13.89;46.78;100613.56;5065741;28;20075;-83
2023/09/23 04:43:06;;;;;;;2.25;0.98;;;;;;;13.88;47.21;100609.09;5061084;28;20137;-84
2023/09/23 04:45:34;;;;;;;3.50;1.05;;;;;;;13.84;46.84;100618.72;5043808;28;20055;-83
2023/09/23 04:48:02;;;;;;;1.40;0.70;;;;;;;13.85;46.89;100625.94;5045085;28;20045;-83
2023/09/23 04:50:30;;;;;;;2.28;0.80;;;;;;;13.84;47.08;100629.72;5044471;28;20049;-83
2023/09/23 04:52:59;;;;;;;2.28;0.82;;;;;;;13.83;47.21;100636.25;5047101;28;20060;-83
2023/09/23 04:55:28;;;;;;;1.70;0.70;;;;;;;13.84;47.09;100639.84;5044634;28;20048;-83
2023/09/23 04:57:56;;;;;;;2.33;0.80;;;;;;;13.82;47.10;100639.16;5046428;28;20149;-83
2023/09/23 05:00:26;;;;;;;2.72;0.88;;;;;;;13.84;47.30;100646.22;5043979;28;20899;-83
2023/09/23 05:02:54;;;;;;;1.92;0.80;;;;;;;13.81;46.78;100640.16;5045867;28;20064;-83
2023/09/23 05:05:23;;;;;;;2.28;0.80;;;;;;;13.82;47.11;100647.41;5046591;28;20067;-83
2023/09/23 05:07:51;;;;;;;1.55;0.75;;;;;;;13.82;46.95;100653.75;5046225;28;20381;-81
2023/09/23 05:10:19;;;;;;;2.53;0.90;;;;;;;13.82;46.93;100659.25;5065916;28;20114;-83
2023/09/23 05:12:47;;;;;;;3.28;1.10;;;;;;;13.82;46.88;100656.50;5049692;28;20133;-83
2023/09/23 05:15:17;;;;;;;1.50;0.80;;;;;;;13.83;47.09;100668.38;5048357;28;20433;-84
2023/09/23 05:17:46;;;;;;;2.08;1.00;;;;;;;13.84;46.98;100667.34;5051687;28;20049;-84
2023/09/23 05:20:25;;;;;;;1.77;0.93;;;;;;;13.80;47.10;100663.19;5055021;28;20051;-83
2023/09/23 05:22:53;;;;;;;1.90;0.90;;;;;;;13.79;46.68;100672.47;5067074;28;20037;-83
2023/09/23 05:25:24;;;;;;;1.83;0.88;;;;;;;13.80;47.10;100682.44;5065259;28;20058;-83
2023/09/23 05:27:54;;;;;;;2.42;1.00;;;;;;;13.77;46.72;100689.16;5056169;28;20048;-83
2023/09/23 05:30:26;;;;;;;2.38;1.00;;;;;;;13.79;46.85;100694.47;5044864;28;20056;-82
2023/09/23 05:32:55;;;;;;;2.67;0.90;;;;;;;13.78;47.13;100699.09;5046223;28;20159;-83
2023/09/23 05:35:24;;;;;;;3.35;1.00;;;;;;;13.77;47.29;100702.91;5063501;28;20048;-82
2023/09/23 05:37:52;;;;;;;1.75;0.93;;;;;;;13.78;47.48;100709.25;5063857;28;20556;-84
2023/09/23 05:40:23;;;;;;;2.20;1.02;;;;;;;13.78;47.05;100715.59;5044101;28;20060;-83
2023/09/23 05:42:51;;;;;;;3.20;1.17;;;;;;;13.77;47.22;100719.41;5044824;28;20056;-84
2023/09/23 05:45:23;;;;;;;1.67;0.98;;;;;;;13.79;47.46;100724.72;5042938;28;20600;-84
2023/09/23 05:47:52;;;;;;;1.38;0.82;;;;;;;13.76;47.39;100723.16;5077703;28;20532;-83
2023/09/23 05:50:21;;;;;;;3.00;1.15;;;;;;;13.78;46.85;100726.59;5045596;28;20128;-83
2023/09/23 05:52:50;;;;;;;2.55;1.17;;;;;;;13.77;46.96;100735.91;5045809;28;20079;-83
2023/09/23 05:55:18;;;;;;;2.78;1.30;;;;;;;13.74;47.08;100730.72;5045530;28;20486;-83
2023/09/23 05:57:46;;;;;;;3.20;1.00;;;;;;;13.76;47.71;100747.06;5043229;28;20413;-83
2023/09/23 06:00:16;;;;;;;2.03;1.13;;;;;;;13.76;47.20;100753.44;5041803;28;20098;-83
2023/09/23 06:02:45;;;;;;;2.60;1.10;;;;;;;13.75;47.85;100757.19;5044909;28;20848;-83
2023/09/23 06:05:13;;;;;;;1.92;1.13;;;;;;;13.74;47.46;100754.59;5043966;28;20085;-83
2023/09/23 06:07:43;;;;;;;2.80;1.20;;;;;;;13.77;47.61;100766.16;5043357;28;20079;-82
2023/09/23 06:10:11;;;;;;;1.90;0.90;;;;;;;13.77;47.77;100771.66;5042427;28;20508;-82
2023/09/23 06:12:40;;;;;;;1.92;1.10;;;;;;;13.76;47.48;100769.06;5060616;28;20066;-82
2023/09/23 06:15:10;;;;;;;3.40;1.15;;;;;;;13.78;47.59;100778.00;5040645;28;20444;-83
2023/09/23 06:17:38;;;;;;;2.20;1.10;;;;;;;13.79;48.03;100779.72;5043145;28;20048;-83
2023/09/23 06:20:07;;;;;;;2.65;1.20;;;;;;;13.79;48.10;100785.22;5062995;28;20054;-83
2023/09/23 06:22:35;;;;;;;2.72;1.20;;;;;;;13.78;47.90;100786.25;5043126;28;20059;-83
2023/09/23 06:25:06;;;;;;;3.47;1.30;;;;;;;13.81;47.68;100796.94;5043066;28;20045;-83
2023/09/23 06:27:34;;;;;;;2.78;1.10;;;;;;;13.80;48.14;100804.34;5043702;28;20048;-83
2023/09/23 06:30:02;;;;;;;3.25;1.10;;;;;;;13.82;47.76;100802.31;5040540;28;20052;-82
2023/09/23 06:32:30;;;;;;;2.63;1.13;;;;;;;13.82;48.07;100812.44;5060974;28;20538;-83
2023/09/23 06:34:58;;;;;;;5.13;1.10;;;;;;;13.85;48.15;100814.88;5043805;28;20149;-83
2023/09/23 06:37:26;;;;;;;2.10;1.08;;;;;;;13.85;47.73;100821.25;5043417;28;20195;-83
2023/09/23 06:39:54;;;;;;;3.40;1.23;;;;;;;13.86;48.00;100830.38;5045073;28;20114;-83
2023/09/23 06:42:24;;;;;;;3.78;1.20;;;;;;;13.89;48.18;100827.28;5044153;28;20543;-82
2023/09/23 06:44:52;;;;;;;3.50;1.00;;;;;;;13.88;48.32;100828.31;5042401;28;20127;-83
2023/09/23 06:47:20;;;;;;;3.53;1.45;;;;;;;13.91;48.77;100833.50;5042275;28;20102;-82
2023/09/23 06:49:49;;;;;;;3.78;1.48;;;;;;;13.94;49.10;100841.47;5043374;28;20508;-83
2023/09/23 06:52:17;;;;;;;3.75;1.20;;;;;;;14.00;49.49;100843.59;5044788;28;20052;-82
2023/09/23 06:54:44;;;;;;;2.40;1.17;;;;;;;14.07;49.91;100846.56;5045160;28;20129;-83
2023/09/23 06:57:13;;;;;;;2.85;1.23;;;;;;;14.16;50.23;100845.63;5045655;28;20094;-84
2023/09/23 06:59:42;;;;;;;3.60;1.42;;;;;;;14.31;50.34;100864.16;5046480;28;20064;-83
2023/09/23 07:02:10;;;;;;;2.22;1.23;;;;;;;14.44;50.76;100863.75;5051722;28;20052;-83
2023/09/23 07:04:39;;;;;;;2.35;1.23;;;;;;;14.62;50.68;100872.00;5081485;28;20033;-83
2023/09/23 07:07:08;;;;;;;2.40;1.30;;;;;;;14.80;50.87;100875.59;5061821;28;20052;-83
2023/09/23 07:09:46;;;;;;;3.03;1.27;;;;;;;15.02;51.19;100872.28;5056551;28;20074;-84
2023/09/23 07:12:14;;;;;;;3.50;1.20;;;;;;;15.24;50.57;100876.41;5053028;28;20148;-83
2023/09/23 07:14:44;;;;;;;2.75;1.30;;;;;;;15.46;49.63;100886.00;5057689;28;20126;-83
2023/09/23 07:17:12;;;;;;;2.80;1.20;;;;;;;15.62;48.97;100880.56;5054514;28;20053;-83
2023/09/23 07:19:40;;;;;;;2.47;1.00;;;;;;;15.80;48.98;100880.44;5068615;28;20051;-84
2023/09/23 07:22:08;;;;;;;2.72;1.17;;;;;;;15.94;48.45;100884.44;5048123;28;20049;-83
2023/09/23 07:24:38;;;;;;;3.70;1.17;;;;;;;16.05;47.87;100892.41;5049300;28;20048;-84
2023/09/23 07:27:06;;;;;;;2.70;1.30;;;;;;;16.11;46.99;100888.97;5046512;28;20062;-84
2023/09/23 07:29:34;;;;;;;2.78;1.42;;;;;;;16.14;46.22;100892.28;5046733;28;20094;-83
2023/09/23 07:32:04;;;;;;;4.88;1.63;;;;;;;16.16;45.75;100897.63;5039594;28;20056;-83
2023/09/23 07:34:32;;;;;;;3.90;1.30;;;;;;;16.18;45.69;100903.84;5041161;28;20135;-82
2023/09/23 07:37:00;;;;;;;2.78;1.15;;;;;;;16.15;45.58;100912.47;5040209;28;20044;-83
2023/09/23 07:39:30;;;;;;;3.33;1.27;;;;;;;16.16;45.57;100911.44;5042338;28;20609;-83
2023/09/23 07:41:58;;;;;;;3.00;1.20;;;;;;;16.13;45.78;100914.53;5044189;28;20106;-83
2023/09/23 07:44:26;;;;;;;2.35;1.20;;;;;;;16.10;45.70;100918.47;5043716;28;20582;-83
2023/09/23 07:46:55;;;;;;;3.45;1.33;;;;;;;16.09;46.09;100916.75;5044682;28;20164;-83
2023/09/23 07:49:24;;;;;;;3.00;1.23;;;;;;;16.13;45.38;100925.56;5042976;28;20134;-83
2023/09/23 07:51:53;;;;;;;4.28;1.25;;;;;;;16.10;45.41;100929.50;5039026;28;20049;-83
2023/09/23 07:54:21;;;;;;;3.13;1.40;;;;;;;16.11;45.69;100939.53;5073618;28;20104;-85
2023/09/23 07:56:50;;;;;;;3.72;1.40;;;;;;;16.11;46.04;100938.66;5038618;28;20040;-83
2023/09/23 07:59:18;;;;;;;2.60;1.00;;;;;;;16.12;45.61;100932.13;5037928;28;20040;-84
2023/09/23 08:01:46;;;;;;;4.32;0.90;;;;;;;16.14;45.53;100939.22;5037820;28;20131;-83
2023/09/23 08:04:15;;;;;;;3.83;1.10;;;;;;;16.15;45.79;100943.69;5039005;28;20076;-83
2023/09/23 08:06:44;;;;;;;2.53;0.90;;;;;;;16.20;45.69;100943.22;5036082;28;20048;-84
2023/09/23 08:09:12;;;;;;;4.32;1.40;;;;;;;16.18;45.41;100948.91;5040083;28;20075;-83
2023/09/23 08:11:40;;;;;;;3.22;1.05;;;;;;;16.23;45.37;100951.16;5042007;28;20084;-83
2023/09/23 08:14:08;;;;;;;2.97;1.10;;;;;;;16.24;45.31;100945.47;5042584;28;20059;-83
2023/09/23 08:16:36;;;;;;;2.35;1.08;;;;;;;16.27;45.48;100950.66;5055887;28;20132;-83
2023/09/23 08:19:05;;;;;;;2.33;1.10;;;;;;;16.29;45.06;100946.84;5061155;28;20519;-83
2023/09/23 08:21:32;;;;;;;4.22;1.20;;;;;;;16.31;45.11;100951.19;5039570;28;20050;-83
2023/09/23 08:24:03;;;;;;;3.00;1.10;;;;;;;16.36;44.72;100956.19;5042723;28;20053;-83
2023/09/23 08:26:31;;;;;;;2.75;1.02;;;;;;;16.36;44.73;100959.81;5040606;28;20059;-82
2023/09/23 08:28:59;;;;;;;2.05;0.93;;;;;;;16.38;45.09;100968.81;5041719;28;20072;-82
2023/09/23 08:31:27;;;;;;;2.22;0.93;;;;;;;16.39;45.08;100966.91;5042819;28;20500;-82
2023/09/23 08:33:55;;;;;;;2.85;0.95;;;;;;;16.43;44.73;100971.03;5046839;28;20152;-83
2023/09/23 08:36:24;;;;;;;3.08;1.30;;;;;;;16.45;44.41;100980.91;5046464;28;20150;-84
2023/09/23 08:38:52;;;;;;;3.53;1.10;;;;;;;16.47;44.53;100989.03;5067314;28;20044;-83
2023/09/23 08:41:23;;;;;;;1.65;1.05;;;;;;;16.49;44.34;100985.06;5049143;28;20143;-83
2023/09/23 08:43:53;;;;;;;2.35;1.00;;;;;;;16.50;44.11;100989.53;5054785;28;20071;-82
2023/09/23 08:46:22;;;;;;;3.08;1.00;;;;;;;16.52;43.77;100989.38;5062103;28;20052;-82
2023/09/23 08:48:50;;;;;;;2.75;1.10;;;;;;;16.51;44.25;100995.91;5067026;28;20049;-83
2023/09/23 08:51:21;;;;;;;3.40;0.90;;;;;;;16.50;43.83;100999.72;5083925;28;20060;-82
2023/09/23 08:53:52;;;;;;;2.50;1.02;;;;;;;16.50;44.10;100999.72;5044218;28;20061;-83
2023/09/23 08:56:23;;;;;;;2.60;0.98;;;;;;;16.51;44.33;101001.44;5047283;28;20055;-82
2023/09/23 08:58:51;;;;;;;2.08;0.80;;;;;;;16.52;44.08;101000.41;5047299;28;20144;-82
2023/09/23 09:01:19;;;;;;;2.17;1.08;;;;;;;16.52;44.16;101004.03;5042705;28;20425;-81
2023/09/23 09:03:47;;;;;;;3.58;1.00;;;;;;;16.54;44.45;101010.28;5044361;28;20044;-81
2023/09/23 09:06:17;;;;;;;7.10;1.08;;;;;;;16.57;44.47;101009.09;5060554;28;20832;-81
2023/09/23 09:08:45;;;;;;;4.13;1.33;;;;;;;16.60;44.12;101003.19;5042762;28;20137;-81
2023/09/23 09:11:23;;;;;;;3.15;1.10;;;;;;;16.66;44.09;101004.44;5045878;28;20174;-81
2023/09/23 09:13:52;;;;;;;2.97;1.00;;;;;;;16.66;44.88;101002.50;5045384;28;20494;-80
2023/09/23 09:16:20;;;;;;;3.13;1.08;;;;;;;16.73;44.45;101011.00;5040753;28;20044;-80
2023/09/23 09:18:51;;;;;;;3.33;1.27;;;;;;;16.81;44.38;101016.53;5043700;28;20117;-81
2023/09/23 09:21:19;;;;;;;3.58;1.13;;;;;;;16.84;43.96;101016.16;5041795;28;20057;-81
2023/09/23 09:23:47;;;;;;;2.72;1.10;;;;;;;16.89;44.14;101025.69;5061382;28;20060;-81
2023/09/23 09:26:18;;;;;;;2.67;0.98;;;;;;;16.94;43.91;101034.34;5059043;28;20556;-81
2023/09/23 09:28:47;;;;;;;2.50;1.00;;;;;;;16.99;43.85;101036.59;5046736;28;20075;-81
2023/09/23 09:31:17;;;;;;;2.42;0.90;;;;;;;17.05;43.44;101038.69;5066477;28;20048;-81
2023/09/23 09:33:47;;;;;;;2.35;1.10;;;;;;;17.10;43.58;101046.47;5051245;28;20413;-81
2023/09/23 09:36:18;;;;;;;3.05;1.33;;;;;;;17.13;43.29;101049.75;5047067;28;20057;-79
2023/09/23 09:38:50;;;;;;;2.53;1.30;;;;;;;17.14;42.56;101057.03;5047421;28;20080;-82
2023/09/23 09:41:27;;;;;;;3.13;1.50;;;;;;;17.14;42.29;101068.09;5046188;28;20064;-81
2023/09/23 09:44:00;;;;;;;3.13;1.13;;;;;;;17.15;42.56;101071.72;5045461;28;20037;-81
2023/09/23 09:46:31;;;;;;;2.67;1.30;;;;;;;17.12;42.14;101069.28;5044969;28;20068;-82
2023/09/23 09:49:01;;;;;;;2.88;1.20;;;;;;;17.07;42.43;101067.06;5045878;28;20063;-81
2023/09/23 09:51:33;;;;;;;2.83;1.42;;;;;;;17.08;42.37;101078.94;5042856;28;20842;-80
2023/09/23 09:54:02;;;;;;;2.45;1.10;;;;;;;17.07;42.59;101072.59;5044742;28;20045;-80
2023/09/23 09:56:32;;;;;;;2.28;0.90;;;;;;;17.05;42.44;101066.34;5042312;28;20102;-79
2023/09/23 09:59:03;;;;;;;1.00;0.80;;;;;;;17.09;42.47;101075.16;5044304;28;20052;-81
2023/09/23 10:01:32;;;;;;;2.40;1.10;;;;;;;17.05;42.34;101082.06;5044042;28;20055;-80
2023/09/23 10:04:00;;;;;;;3.08;1.10;;;;;;;17.04;41.99;101072.06;5046210;28;20048;-81
2023/09/23 10:06:42;;;;;;;2.40;1.10;;;;;;;17.06;41.13;101081.03;5042103;28;20189;-81
2023/09/23 10:09:18;;;;;;;2.40;1.00;;;;;;;17.06;41.14;101083.81;5046247;28;20052;-82
2023/09/23 10:12:04;;;;;;;3.55;0.98;;;;;;;17.06;42.24;101086.56;5065172;28;20059;-81
2023/09/23 10:14:34;;;;;;;2.58;1.15;;;;;;;17.05;42.10;101094.00;5046552;28;20157;-82
2023/09/23 10:17:04;;;;;;;1.92;1.02;;;;;;;17.07;41.58;101094.72;5045499;28;20072;-82
2023/09/23 10:19:33;;;;;;;2.03;0.90;;;;;;;17.05;41.80;101094.00;5046893;28;20135;-82
2023/09/23 10:22:17;;;;;;;2.30;0.95;;;;;;;17.11;41.43;101092.44;5063159;28;20048;-81
2023/09/23 10:24:46;;;;;;;2.28;1.10;;;;;;;17.07;41.92;101089.19;5048513;28;20155;-84
2023/09/23 10:31:02;;;;;;;1.50;0.80;;;;;;;17.08;41.63;101088.09;5068889;28;20056;-82
2023/09/23 10:33:32;;;;;;;1.55;0.90;;;;;;;17.14;41.98;101092.13;5064303;28;20041;-80
2023/09/23 10:36:01;;;;;;;3.00;1.17;;;;;;;17.18;41.83;101090.72;5057524;28;20645;-83
2023/09/23 10:38:34;;;;;;;1.90;1.00;;;;;;;17.21;41.85;101094.00;5062218;28;20485;-82
2023/09/23 10:41:04;;;;;;;2.33;1.13;;;;;;;17.25;41.60;101111.97;5042919;28;20791;-82
2023/09/23 10:43:32;;;;;;;2.22;0.80;;;;;;;17.28;41.68;101097.81;5043970;28;20088;-82
2023/09/23 10:46:02;;;;;;;2.05;0.80;;;;;;;17.35;41.36;101104.38;5043209;28;20044;-84
2023/09/23 10:48:31;;;;;;;3.08;1.10;;;;;;;17.35;41.37;101109.06;5043709;28;20516;-84
2023/09/23 10:51:00;;;;;;;2.72;0.90;;;;;;;17.40;41.02;101109.41;5042805;28;20054;-84
2023/09/23 10:53:29;;;;;;;3.28;0.85;;;;;;;17.40;41.27;101107.50;5043736;28;20044;-83
2023/09/23 10:55:57;;;;;;;1.63;1.00;;;;;;;17.44;40.99;101120.97;5044685;28;20044;-83
2023/09/23 10:58:26;;;;;;;1.85;0.80;;;;;;;17.47;41.30;101120.66;5045368;28;20045;-83
2023/09/23 11:00:56;;;;;;;1.90;0.80;;;;;;;17.50;40.96;101118.38;5043249;28;20059;-83
2023/09/23 11:03:25;;;;;;;2.22;0.90;;;;;;;17.52;40.48;101120.97;5042489;28;20052;-83
2023/09/23 11:05:55;;;;;;;1.30;0.82;;;;;;;17.56;40.69;101123.25;5049967;28;20068;-83
2023/09/23 11:08:23;;;;;;;2.35;0.90;;;;;;;17.57;40.27;101143.47;5050390;28;20049;-83
2023/09/23 11:10:51;;;;;;;1.52;0.70;;;;;;;17.59;40.42;101133.09;5051422;28;20052;-83
2023/09/23 11:13:19;;;;;;;2.17;0.77;;;;;;;17.61;40.62;101139.31;5045541;28;20168;-83
2023/09/23 11:15:48;;;;;;;2.08;1.00;;;;;;;17.62;40.16;101135.50;5042756;28;20471;-83
2023/09/23 11:18:17;;;;;;;1.38;0.80;;;;;;;17.64;40.22;101136.22;5062084;28;20048;-82
2023/09/23 11:20:48;;;;;;;1.63;0.90;;;;;;;17.67;39.77;101139.47;5041486;28;20051;-82
2023/09/23 11:23:17;;;;;;;1.60;0.80;;;;;;;17.68;40.13;101143.13;5061527;28;20044;-83
2023/09/23 11:25:50;;;;;;;1.77;1.00;;;;;;;17.68;39.68;101148.66;5041370;28;20076;-84
2023/09/23 11:28:19;;;;;;;1.67;0.90;;;;;;;17.67;39.55;101142.25;5041567;28;20056;-84
2023/09/23 11:30:49;;;;;;;1.40;0.77;;;;;;;17.69;39.78;101148.47;5042297;28;20518;-82
2023/09/23 11:33:20;;;;;;;2.25;0.90;;;;;;;17.70;39.94;101143.81;5042646;28;20154;-82
2023/09/23 11:35:50;;;;;;;1.30;0.80;;;;;;;17.75;39.51;101147.81;5060983;28;20052;-83
2023/09/23 11:38:19;;;;;;;2.55;0.85;;;;;;;17.77;39.61;101151.28;5041138;28;20555;-84